createdAt,value
2023-06-01T00:00:11.222Z,100272.53
2023-06-01T00:05:15.138Z,100270.94
2023-06-01T00:10:16.915Z,100268.88
2023-06-01T00:15:18.626Z,100264.84
2023-06-01T00:20:20.326Z,100259.72
2023-06-01T00:25:22.205Z,100255.81
2023-06-01T00:30:24.139Z,100256.59
2023-06-01T00:35:25.992Z,100262.81
2023-06-01T00:40:27.825Z,100262.50
2023-06-01T00:45:29.712Z,100261.84
2023-06-01T00:50:32.217Z,100260.53
2023-06-01T00:55:34.856Z,100255.69
2023-06-01T01:00:38.601Z,100259.75
2023-06-01T01:05:42.205Z,100259.00
2023-06-01T01:10:51.187Z,100260.06
2023-06-01T01:16:00.155Z,100255.13
2023-06-01T01:21:23.142Z,100255.53
2023-06-01T01:26:54.037Z,100263.91
2023-06-01T01:31:57.047Z,100266.94
2023-06-01T01:36:59.845Z,100263.47
2023-06-01T01:42:01.692Z,100260.16
2023-06-01T01:47:26.537Z,100261.56
2023-06-01T01:52:39.328Z,100246.81
2023-06-01T01:57:43.875Z,100235.31
2023-06-01T02:02:48.803Z,100239.34
2023-06-01T02:07:51.841Z,100235.59
2023-06-01T02:12:53.613Z,100231.75
2023-06-01T02:17:55.318Z,100233.72
2023-06-01T02:22:57.667Z,100238.81
2023-06-01T02:27:59.360Z,100236.72
2023-06-01T02:33:01.183Z,100218.88
2023-06-01T02:38:03.886Z,100218.75
2023-06-01T02:43:05.870Z,100220.88
2023-06-01T02:48:07.636Z,100202.91
2023-06-01T02:53:09.733Z,100205.59
2023-06-01T02:58:17.298Z,100203.28
2023-06-01T03:03:43.181Z,100215.44
2023-06-01T03:08:45.056Z,100222.84
2023-06-01T03:14:03.683Z,100222.47
2023-06-01T03:19:06.639Z,100221.94
2023-06-01T03:24:08.729Z,100215.66
2023-06-01T03:29:10.591Z,100227.09
2023-06-01T03:34:12.740Z,100237.47
2023-06-01T03:39:18.176Z,100230.38
2023-06-01T03:44:20.444Z,100226.31
2023-06-01T03:49:22.414Z,100233.13
2023-06-01T03:54:24.876Z,100224.28
2023-06-01T03:59:26.778Z,100213.41
2023-06-01T04:04:30.452Z,100218.78
2023-06-01T04:09:32.276Z,100214.25
2023-06-01T04:14:34.109Z,100214.56
2023-06-01T04:19:36.250Z,100226.16
2023-06-01T04:24:42.604Z,100231.81
2023-06-01T04:29:45.223Z,100233.97
2023-06-01T04:34:49.244Z,100238.00
2023-06-01T04:39:52.658Z,100233.75
2023-06-01T04:44:54.757Z,100233.00
2023-06-01T04:49:57.240Z,100233.84
2023-06-01T04:54:59.345Z,100225.13
2023-06-01T05:00:01.697Z,100227.13
2023-06-01T05:05:04.447Z,100212.03
2023-06-01T05:10:07.813Z,100206.75
2023-06-01T05:15:17.984Z,100207.97
2023-06-01T05:20:21.297Z,100210.19
2023-06-01T05:25:31.063Z,100213.00
2023-06-01T05:30:32.945Z,100216.84
2023-06-01T05:35:35.897Z,100218.56
2023-06-01T05:40:42.686Z,100215.47
2023-06-01T05:45:44.672Z,100221.69
2023-06-01T05:50:46.544Z,100227.25
2023-06-01T05:55:50.224Z,100224.75
2023-06-01T06:00:54.043Z,100224.78
2023-06-01T06:05:56.172Z,100218.84
2023-06-01T06:10:58.049Z,100216.41
2023-06-01T06:15:59.757Z,100214.34
2023-06-01T06:21:01.829Z,100211.94
2023-06-01T06:26:03.762Z,100211.53
2023-06-01T06:31:05.721Z,100213.63
2023-06-01T06:36:07.494Z,100204.59
2023-06-01T06:41:09.579Z,100208.66
2023-06-01T06:46:11.400Z,100217.69
2023-06-01T06:51:13.316Z,100210.56
2023-06-01T06:56:15.104Z,100210.31
2023-06-01T07:01:16.948Z,100206.28
2023-06-01T07:06:19.388Z,100206.44
2023-06-01T07:11:22.066Z,100209.03
2023-06-01T07:16:25.804Z,100200.63
2023-06-01T07:21:27.771Z,100206.84
2023-06-01T07:26:30.871Z,100202.06
2023-06-01T07:31:33.666Z,100191.00
2023-06-01T07:36:38.286Z,100185.00
2023-06-01T07:41:40.928Z,100172.81
2023-06-01T07:46:42.735Z,100178.00
2023-06-01T07:51:44.744Z,100177.81
2023-06-01T07:56:48.269Z,100176.25
2023-06-01T08:01:50.858Z,100181.41
2023-06-01T08:06:54.172Z,100176.75
2023-06-01T08:11:56.051Z,100168.41
2023-06-01T08:16:57.956Z,100164.81
2023-06-01T08:22:00.216Z,100157.81
2023-06-01T08:27:02.141Z,100158.72
2023-06-01T08:32:03.954Z,100143.13
2023-06-01T08:37:05.970Z,100146.97
2023-06-01T08:42:11.374Z,100140.22
2023-06-01T08:47:14.396Z,100141.91
2023-06-01T08:52:21.658Z,100135.44
2023-06-01T08:57:23.721Z,100135.44
2023-06-01T09:02:26.339Z,100131.13
2023-06-01T09:07:29.250Z,100131.22
2023-06-01T09:12:31.490Z,100123.75
2023-06-01T09:17:34.064Z,100121.06
2023-06-01T09:22:43.084Z,100119.19
2023-06-01T09:27:50.490Z,100111.34
2023-06-01T09:33:07.347Z,100119.03
2023-06-01T09:38:09.730Z,100111.09
2023-06-01T09:43:22.922Z,100108.97
2023-06-01T09:48:24.643Z,100101.41
2023-06-01T09:53:27.450Z,100110.97
2023-06-01T09:58:29.626Z,100102.81
2023-06-01T10:03:31.823Z,100097.75
2023-06-01T10:08:35.093Z,100093.06
2023-06-01T10:13:37.298Z,100094.91
2023-06-01T10:18:39.918Z,100086.84
2023-06-01T10:23:42.353Z,100095.31
2023-06-01T10:28:46.987Z,100086.16
2023-06-01T10:33:56.653Z,100069.19
2023-06-01T10:39:24.842Z,100076.38
2023-06-01T10:44:41.862Z,100080.47
2023-06-01T10:49:49.768Z,100063.88
2023-06-01T10:54:51.681Z,100066.81
2023-06-01T11:00:12.325Z,100062.03
2023-06-01T11:05:49.234Z,100059.81
2023-06-01T11:10:54.437Z,100057.06
2023-06-01T11:16:09.056Z,100054.28
2023-06-01T11:21:12.217Z,100037.28
2023-06-01T11:26:17.042Z,100038.78
2023-06-01T11:31:21.968Z,100040.00
2023-06-01T11:36:27.516Z,100033.16
2023-06-01T11:41:29.239Z,100022.19
2023-06-01T11:46:31.618Z,100017.25
2023-06-01T11:51:43.591Z,100013.38
2023-06-01T11:56:46.730Z,100006.09
2023-06-01T12:01:50.953Z,100005.78
2023-06-01T12:06:52.874Z,99996.50
2023-06-01T12:11:56.098Z,100006.41
2023-06-01T12:16:59.814Z,100000.84
2023-06-01T12:22:02.121Z,100005.63
2023-06-01T12:27:18.278Z,99994.22
2023-06-01T12:32:20.931Z,99990.63
2023-06-01T12:37:22.710Z,99986.44
2023-06-01T12:42:44.662Z,99980.88
2023-06-01T12:47:46.504Z,99978.28
2023-06-01T12:52:48.260Z,99967.72
2023-06-01T12:57:54.532Z,99968.41
2023-06-01T13:02:56.279Z,99979.44
2023-06-01T13:07:58.683Z,99967.09
2023-06-01T13:13:01.194Z,99958.38
2023-06-01T13:18:03.134Z,99956.97
2023-06-01T13:23:05.130Z,99954.88
2023-06-01T13:28:08.975Z,99949.84
2023-06-01T13:33:11.004Z,99953.44
2023-06-01T13:38:13.294Z,99956.47
2023-06-01T13:43:15.078Z,99953.44
2023-06-01T13:48:19.548Z,99955.19
2023-06-01T13:53:22.379Z,99949.91
2023-06-01T13:58:24.083Z,99935.81
2023-06-01T14:03:25.896Z,99933.53
2023-06-01T14:08:27.800Z,99932.44
2023-06-01T14:13:29.531Z,99921.63
2023-06-01T14:18:31.204Z,99919.41
2023-06-01T14:23:33.583Z,99920.81
2023-06-01T14:28:35.389Z,99915.06
2023-06-01T14:33:38.150Z,99918.41
2023-06-01T14:38:40.292Z,99908.41
2023-06-01T14:43:42.003Z,99911.16
2023-06-01T14:48:43.788Z,99912.31
2023-06-01T14:53:46.928Z,99911.13
2023-06-01T14:58:48.671Z,99911.16
2023-06-01T15:03:50.783Z,99908.03
2023-06-01T15:08:52.586Z,99907.56
2023-06-01T15:13:54.342Z,99895.50
2023-06-01T15:18:56.260Z,99896.81
2023-06-01T15:23:57.985Z,99892.59
2023-06-01T15:29:00.016Z,99883.28
2023-06-01T15:34:01.792Z,99880.00
2023-06-01T15:39:05.094Z,99878.34
2023-06-01T15:44:06.843Z,99873.16
2023-06-01T15:49:09.211Z,99865.78
2023-06-01T15:54:11.041Z,99861.88
2023-06-01T15:59:12.817Z,99862.59
2023-06-01T16:04:16.096Z,99861.50
2023-06-01T16:09:18.657Z,99848.84
2023-06-01T16:14:20.711Z,99844.81
2023-06-01T16:19:22.379Z,99839.88
2023-06-01T16:24:24.291Z,99839.38
2023-06-01T16:29:26.036Z,99836.94
2023-06-01T16:34:27.906Z,99846.69
2023-06-01T16:39:29.582Z,99834.91
2023-06-01T16:44:31.415Z,99832.41
2023-06-01T16:49:33.246Z,99831.97
2023-06-01T16:54:35.631Z,99831.84
2023-06-01T16:59:38.255Z,99826.03
2023-06-01T17:04:40.167Z,99822.75
2023-06-01T17:09:42.183Z,99812.16
2023-06-01T17:14:47.634Z,99815.13
2023-06-01T17:19:49.518Z,99817.00
2023-06-01T17:24:51.914Z,99819.91
2023-06-01T17:29:53.710Z,99820.94
2023-06-01T17:34:55.549Z,99822.56
2023-06-01T17:39:57.256Z,99811.66
2023-06-01T17:44:58.987Z,99819.72
2023-06-01T17:50:00.800Z,99814.94
2023-06-01T17:55:02.628Z,99815.16
2023-06-01T18:00:05.052Z,99823.69
2023-06-01T18:05:10.179Z,99820.50
2023-06-01T18:10:12.127Z,99820.63
2023-06-01T18:15:13.907Z,99813.31
2023-06-01T18:20:15.680Z,99815.97
2023-06-01T18:25:17.591Z,99808.91
2023-06-01T18:30:19.336Z,99812.78
2023-06-01T18:35:21.038Z,99818.66
2023-06-01T18:40:23.572Z,99815.97
2023-06-01T18:45:25.441Z,99821.09
2023-06-01T18:50:30.993Z,99825.19
2023-06-01T18:55:32.823Z,99826.91
2023-06-01T19:00:34.566Z,99836.22
2023-06-01T19:05:36.656Z,99833.38
2023-06-01T19:11:00.149Z,99848.94
2023-06-01T19:16:05.821Z,99846.19
2023-06-01T19:21:13.190Z,99846.53
2023-06-01T19:26:18.439Z,99853.13
2023-06-01T19:31:24.527Z,99851.72
2023-06-01T19:36:58.105Z,99863.38
2023-06-01T19:42:02.660Z,99859.75
2023-06-01T19:47:05.045Z,99861.91
2023-06-01T19:52:08.814Z,99868.38
2023-06-01T19:57:10.624Z,99871.75
2023-06-01T20:02:40.876Z,99869.81
2023-06-01T20:07:43.047Z,99868.75
2023-06-01T20:12:44.795Z,99875.16
2023-06-01T20:17:46.830Z,99882.47
2023-06-01T20:22:48.648Z,99883.63
2023-06-01T20:27:50.429Z,99884.19
2023-06-01T20:32:54.628Z,99890.06
2023-06-01T20:37:56.400Z,99892.72
2023-06-01T20:42:58.216Z,99894.50
2023-06-01T20:48:00.032Z,99887.25
2023-06-01T20:53:01.859Z,99899.69
2023-06-01T20:58:03.508Z,99896.56
2023-06-01T21:03:05.456Z,99900.72
2023-06-01T21:08:08.011Z,99900.94
2023-06-01T21:13:09.774Z,99903.28
2023-06-01T21:18:11.671Z,99914.09
2023-06-01T21:23:13.649Z,99914.81
2023-06-01T21:28:15.490Z,99912.78
2023-06-01T21:33:17.383Z,99924.06
2023-06-01T21:38:19.317Z,99924.13
2023-06-01T21:43:21.869Z,99921.97
2023-06-01T21:48:24.857Z,99931.25
2023-06-01T21:53:27.134Z,99929.09
2023-06-01T22:03:32.930Z,99938.25
2023-06-01T22:08:34.829Z,99944.44
2023-06-01T22:13:36.620Z,99953.13
2023-06-01T22:18:38.386Z,99953.84
2023-06-01T22:23:40.201Z,99951.03
2023-06-01T22:28:42.041Z,99959.25
2023-06-01T22:33:43.873Z,99962.09
2023-06-01T22:38:45.677Z,99969.97
2023-06-01T22:43:47.493Z,99978.13
2023-06-01T22:48:50.905Z,99981.75
2023-06-01T22:53:52.678Z,99984.88
2023-06-01T22:58:54.508Z,99980.00
2023-06-01T23:03:56.646Z,99981.38
2023-06-01T23:08:58.502Z,99979.72
2023-06-01T23:14:00.742Z,99994.94
2023-06-01T23:19:04.755Z,99993.59
2023-06-01T23:24:07.407Z,99994.44
2023-06-01T23:29:09.286Z,99993.88
2023-06-01T23:34:12.043Z,99998.38
2023-06-01T23:39:14.110Z,99986.56
2023-06-01T23:44:16.846Z,99988.91
2023-06-01T23:49:19.019Z,99987.13
2023-06-01T23:54:20.869Z,99997.63
2023-06-01T23:59:22.648Z,99993.38
